Time;durP1;ratioP1;P1;durP2;ratioP2;P2;SDS_P1;SDS_P2;PMS_P1;PMS_P2;Temp;Humidity;BMP_temperature;BMP_pressure;BME280_temperature;BME280_humidity;BME280_pressure;Samples;Min_cycle;Max_cycle;Signal;HPM_P1;HPM_P2
2022/05/04 00:00:40;;;;;;;10.65;6.53;;;;;;;11.53;80.02;99760.38;5084074;28;20064;-52
2022/05/04 00:03:24;;;;;;;10.35;6.32;;;;;;;11.51;81.54;99762.19;5083824;28;20132;-50
2022/05/04 00:06:12;;;;;;;15.02;6.70;;;;;;;11.54;82.16;99769.13;5083751;28;20054;-52
2022/05/04 00:08:56;;;;;;;12.40;6.75;;;;;;;11.42;84.93;99763.31;5084190;28;20044;-52
2022/05/04 00:11:42;;;;;;;10.52;6.40;;;;;;;11.54;81.66;99764.72;5083835;28;20058;-51
2022/05/04 00:14:27;;;;;;;10.38;7.18;;;;;;;11.51;80.29;99770.06;5083909;28;20044;-52
2022/05/04 00:17:11;;;;;;;15.98;8.13;;;;;;;11.36;80.85;99771.34;5082736;28;20722;-51
2022/05/04 00:19:56;;;;;;;12.23;7.50;;;;;;;11.54;79.04;99769.13;5082646;28;20055;-52
2022/05/04 00:22:41;;;;;;;13.13;8.60;;;;;;;11.49;80.30;99769.25;5083082;28;20097;-51
2022/05/04 00:25:25;;;;;;;12.10;7.43;;;;;;;11.55;80.48;99776.06;5082996;28;20047;-53
2022/05/04 00:28:10;;;;;;;12.68;7.13;;;;;;;11.56;78.06;99778.66;5082894;28;20035;-53
2022/05/04 00:30:54;;;;;;;13.38;7.53;;;;;;;11.56;78.24;99765.53;5082643;28;20036;-53
2022/05/04 00:33:39;;;;;;;14.02;9.18;;;;;;;11.46;77.27;99777.19;5083143;28;20063;-51
2022/05/04 00:36:23;;;;;;;12.68;7.68;;;;;;;11.63;76.81;99780.19;5082166;28;20471;-52
2022/05/04 00:39:08;;;;;;;11.65;7.32;;;;;;;11.62;75.41;99775.84;5094672;28;20044;-51
2022/05/04 00:41:52;;;;;;;12.52;7.43;;;;;;;11.70;74.97;99765.13;5082241;28;20047;-53
2022/05/04 00:44:38;;;;;;;13.88;7.57;;;;;;;11.68;74.18;99778.28;5082408;28;20055;-51
2022/05/04 00:47:23;;;;;;;13.82;7.82;;;;;;;11.60;73.57;99784.66;5082667;28;20052;-52
2022/05/04 00:50:08;;;;;;;14.48;8.02;;;;;;;11.70;73.19;99784.34;5083695;28;20059;-53
2022/05/04 00:52:52;;;;;;;12.93;7.07;;;;;;;11.57;72.89;99783.00;5081371;28;20074;-52
2022/05/04 00:55:38;;;;;;;12.82;7.90;;;;;;;11.66;72.47;99784.47;5081380;28;20051;-51
2022/05/04 01:01:28;;;;;;;12.07;7.57;;;;;;;11.52;73.71;99784.88;5082312;28;20067;-51
2022/05/04 01:04:13;;;;;;;15.70;8.60;;;;;;;11.59;73.60;99775.94;5080810;28;20092;-52
2022/05/04 01:06:58;;;;;;;14.93;8.38;;;;;;;11.49;73.14;99782.34;5080525;28;20051;-52
2022/05/04 01:09:44;;;;;;;11.68;7.43;;;;;;;11.49;73.01;99776.25;5082361;28;20054;-50
2022/05/04 01:12:28;;;;;;;18.02;9.38;;;;;;;11.27;73.01;99783.88;5078316;28;20040;-52
2022/05/04 01:15:12;;;;;;;11.85;7.75;;;;;;;11.43;73.05;99786.00;5080693;28;20101;-53
2022/05/04 01:17:57;;;;;;;14.73;7.63;;;;;;;11.39;72.40;99796.63;5081886;28;20051;-52
2022/05/04 01:20:41;;;;;;;14.52;7.80;;;;;;;11.31;72.68;99790.75;5080952;28;20669;-52
2022/05/04 01:23:27;;;;;;;13.43;8.00;;;;;;;11.29;73.72;99793.41;5081339;28;20063;-52
2022/05/04 01:26:13;;;;;;;12.88;7.43;;;;;;;11.39;72.68;99797.50;5080185;28;20093;-53
2022/05/04 01:28:58;;;;;;;12.48;8.05;;;;;;;11.46;72.74;99798.19;5080886;28;20040;-52
2022/05/04 01:31:43;;;;;;;15.90;9.18;;;;;;;11.54;72.03;99793.59;5081500;28;20074;-52
2022/05/04 01:34:28;;;;;;;13.95;7.60;;;;;;;11.27;72.31;99794.34;5080623;28;20044;-51
2022/05/04 01:37:12;;;;;;;11.02;7.03;;;;;;;11.18;73.38;99798.97;5080926;28;20134;-52
2022/05/04 01:39:56;;;;;;;17.40;8.60;;;;;;;11.27;74.15;99799.59;5080799;28;20040;-51
2022/05/04 01:42:41;;;;;;;15.45;8.65;;;;;;;11.32;74.28;99790.72;5080069;28;20043;-52
2022/05/04 01:45:26;;;;;;;16.17;9.38;;;;;;;11.04;76.50;99793.22;5081129;28;20811;-52
2022/05/04 01:48:11;;;;;;;15.80;8.35;;;;;;;11.26;75.57;99795.28;5079432;28;20051;-52
2022/05/04 01:50:56;;;;;;;18.25;9.48;;;;;;;10.89;77.91;99793.66;5079778;28;20052;-52
2022/05/04 01:53:43;;;;;;;15.52;8.90;;;;;;;11.07;77.14;99795.78;5080305;28;20658;-52
2022/05/04 01:56:28;;;;;;;18.77;9.98;;;;;;;10.83;78.33;99796.44;5081157;28;20051;-51
2022/05/04 01:59:12;;;;;;;14.65;9.75;;;;;;;11.02;77.83;99795.06;5080741;28;20044;-52
2022/05/04 02:01:58;;;;;;;13.93;8.50;;;;;;;11.05;77.73;99805.47;5082257;28;20081;-52
2022/05/04 02:04:43;;;;;;;15.38;9.52;;;;;;;10.87;79.33;99795.44;5082172;28;20040;-52
2022/05/04 02:07:28;;;;;;;16.77;9.77;;;;;;;10.92;79.25;99804.91;5083515;28;20732;-52
2022/05/04 02:10:12;;;;;;;16.08;9.55;;;;;;;10.87;79.45;99803.31;5083410;28;20044;-52
2022/05/04 02:12:57;;;;;;;20.27;9.38;;;;;;;10.94;79.73;99797.84;5082299;28;20036;-52
2022/05/04 02:15:41;;;;;;;14.48;9.40;;;;;;;10.92;80.24;99798.78;5082207;28;20077;-52
2022/05/04 02:18:26;;;;;;;16.13;9.70;;;;;;;10.98;79.25;99807.38;5080941;28;20097;-52
2022/05/04 02:21:10;;;;;;;13.65;9.45;;;;;;;10.91;80.00;99810.19;5081444;28;20044;-53
2022/05/04 02:23:55;;;;;;;19.52;9.55;;;;;;;10.98;79.13;99806.50;5082805;28;20052;-53
2022/05/04 02:26:39;;;;;;;16.92;9.55;;;;;;;10.89;78.98;99812.00;5082251;28;20063;-52
2022/05/04 02:29:24;;;;;;;15.88;9.70;;;;;;;10.86;79.02;99806.84;5080794;28;20402;-51
2022/05/04 02:32:08;;;;;;;16.05;8.82;;;;;;;10.90;79.55;99803.22;5081935;28;20047;-52
2022/05/04 02:37:57;;;;;;;16.05;10.40;;;;;;;10.77;79.43;99818.41;5081248;28;20051;-52
2022/05/04 02:40:41;;;;;;;18.38;10.80;;;;;;;10.89;78.98;99814.63;5080816;28;20059;-52
2022/05/04 02:43:26;;;;;;;33.17;16.33;;;;;;;10.81;78.91;99809.56;5081040;28;20060;-53
2022/05/04 02:46:13;;;;;;;19.92;9.85;;;;;;;10.55;79.51;99805.00;5081840;28;20511;-52
2022/05/04 02:48:57;;;;;;;19.63;11.45;;;;;;;10.73;79.19;99806.31;5081245;28;20052;-52
2022/05/04 02:51:42;;;;;;;19.30;8.85;;;;;;;10.66;79.21;99805.59;5080530;28;20112;-51
2022/05/04 02:54:27;;;;;;;19.30;9.80;;;;;;;10.46;80.27;99820.91;5081638;28;20912;-52
2022/05/04 02:57:11;;;;;;;14.30;8.38;;;;;;;10.55;80.33;99812.84;5081099;28;20052;-52
2022/05/04 02:59:56;;;;;;;17.67;8.95;;;;;;;10.47;79.96;99827.91;5080693;28;20513;-51
2022/05/04 03:02:41;;;;;;;16.48;9.20;;;;;;;10.49;79.78;99818.22;5083561;28;20525;-52
2022/05/04 03:05:25;;;;;;;12.65;7.75;;;;;;;10.48;80.07;99821.75;5083971;28;20819;-52
2022/05/04 03:08:10;;;;;;;13.40;8.82;;;;;;;10.60;79.76;99823.22;5085111;28;20052;-52
2022/05/04 03:13:58;;;;;;;;;;;;;;;10.36;81.10;99827.28;5084445;28;20547;-52
2022/05/04 03:16:43;;;;;;;17.65;9.45;;;;;;;10.49;80.90;99828.72;5084756;28;19955;-52
2022/05/04 03:19:27;;;;;;;16.05;8.68;;;;;;;10.46;80.33;99826.16;5082866;28;20052;-52
2022/05/04 03:22:12;;;;;;;14.07;8.38;;;;;;;10.59;79.36;99834.56;5083297;28;20490;-52
2022/05/04 03:24:56;;;;;;;13.02;8.23;;;;;;;10.41;80.15;99846.38;5115114;27;20047;-52
2022/05/04 03:27:40;;;;;;;15.48;7.70;;;;;;;10.38;80.51;99842.06;5084448;28;20040;-52
2022/05/04 03:30:25;;;;;;;14.13;7.53;;;;;;;10.48;80.59;99838.31;5084222;28;20505;-51
2022/05/04 03:33:09;;;;;;;12.15;7.63;;;;;;;10.50;80.61;99838.31;5083387;28;20307;-52
2022/05/04 03:35:54;;;;;;;15.05;7.70;;;;;;;10.48;80.71;99842.72;5084134;28;20048;-52
2022/05/04 03:38:39;;;;;;;11.07;6.80;;;;;;;10.59;80.23;99843.28;5082295;28;20421;-53
2022/05/04 03:41:24;;;;;;;10.98;7.40;;;;;;;10.72;79.69;99838.63;5081510;28;20052;-52
2022/05/04 03:44:08;;;;;;;16.40;8.10;;;;;;;10.60;80.85;99841.56;5081466;28;20171;-52
2022/05/04 03:46:53;;;;;;;11.07;7.00;;;;;;;10.74;80.34;99842.06;5081893;28;20047;-51
2022/05/04 03:49:37;;;;;;;11.35;7.65;;;;;;;10.41;83.62;99844.59;5082624;28;20123;-50
2022/05/04 03:52:22;;;;;;;16.45;8.15;;;;;;;10.29;84.20;99852.75;5081283;28;20056;-52
2022/05/04 03:55:07;;;;;;;14.02;7.10;;;;;;;10.41;84.21;99849.00;5082982;28;20051;-51
2022/05/04 03:57:53;;;;;;;13.77;7.55;;;;;;;10.46;83.65;99849.72;5079840;28;20049;-51
2022/05/04 04:00:37;;;;;;;15.55;7.88;;;;;;;10.64;82.20;99849.28;5079901;28;20059;-52
2022/05/04 04:03:22;;;;;;;10.65;6.97;;;;;;;10.57;82.72;99852.97;5085439;28;20059;-53
2022/05/04 04:06:06;;;;;;;12.13;7.40;;;;;;;10.50;82.72;99849.63;5081609;28;20067;-51
2022/05/04 04:08:51;;;;;;;12.02;7.80;;;;;;;10.59;82.75;99852.91;5080413;28;20043;-52
2022/05/04 04:11:35;;;;;;;12.10;7.45;;;;;;;10.62;82.33;99855.47;5077265;28;20672;-51
2022/05/04 04:14:20;;;;;;;13.98;7.72;;;;;;;10.70;82.96;99859.63;5085095;28;20052;-52
2022/05/04 04:17:04;;;;;;;12.93;7.55;;;;;;;10.59;82.84;99855.53;5080473;28;20044;-51
2022/05/04 04:21:50;;;;;;;12.60;7.30;;;;;;;10.75;82.98;99862.13;5081535;28;20040;-52
2022/05/04 04:22:53;;;;;;;14.90;7.65;;;;;;;10.89;81.88;99865.28;5084975;28;20056;-52
2022/05/04 04:25:38;;;;;;;11.02;7.05;;;;;;;10.90;81.92;99864.34;5083398;28;20382;-52
2022/05/04 04:28:23;;;;;;;12.80;7.28;;;;;;;10.61;83.10;99865.06;5083067;28;20154;-52
2022/05/04 04:31:11;;;;;;;13.25;7.63;;;;;;;10.75;82.86;99869.97;5083457;28;20040;-52
2022/05/04 04:33:56;;;;;;;14.13;7.78;;;;;;;10.91;82.12;99867.84;5081666;28;20116;-52
2022/05/04 04:36:43;;;;;;;23.42;9.07;;;;;;;11.15;81.23;99875.06;5077591;28;20035;-52
2022/05/04 04:39:27;;;;;;;14.18;7.93;;;;;;;11.96;78.86;99869.34;5079962;28;20048;-50
2022/05/04 04:42:14;;;;;;;12.30;6.95;;;;;;;12.03;76.37;99864.78;5078721;28;20052;-52
2022/05/04 04:44:58;;;;;;;11.57;7.07;;;;;;;12.35;76.07;99869.06;5078856;28;20083;-53
2022/05/04 04:47:47;;;;;;;14.82;7.45;;;;;;;12.70;74.17;99869.66;5079966;28;20043;-52
2022/05/04 04:50:32;;;;;;;16.85;8.25;;;;;;;12.73;72.96;99870.41;5077448;28;20113;-52
2022/05/04 04:53:17;;;;;;;12.80;7.80;;;;;;;12.64;73.64;99865.47;5078935;28;20063;-52
2022/05/04 04:56:02;;;;;;;15.55;7.82;;;;;;;12.52;73.21;99869.38;5077387;28;20167;-53
2022/05/04 04:58:46;;;;;;;15.50;7.70;;;;;;;12.61;72.86;99874.31;5078786;28;20056;-51
2022/05/04 05:01:31;;;;;;;11.30;7.07;;;;;;;12.85;72.79;99877.91;5079168;28;20056;-53
2022/05/04 05:04:16;;;;;;;13.52;7.30;;;;;;;12.72;71.36;99878.38;5079925;28;20048;-52
2022/05/04 05:07:00;;;;;;;13.25;7.50;;;;;;;13.04;70.87;99878.16;5080337;28;20043;-53
2022/05/04 05:09:45;;;;;;;15.00;6.45;;;;;;;13.47;68.78;99868.78;5079845;28;20051;-53
2022/05/04 05:12:29;;;;;;;11.13;6.28;;;;;;;14.16;67.34;99881.16;5079525;28;20048;-53
2022/05/04 05:18:17;;;;;;;12.50;6.43;;;;;;;15.03;62.67;99882.09;5081322;28;20052;-52
2022/05/04 05:21:02;;;;;;;11.93;6.90;;;;;;;15.80;61.25;99877.00;5079497;28;20055;-53
2022/05/04 05:23:47;;;;;;;9.63;6.57;;;;;;;16.42;59.02;99878.47;5079253;28;20044;-53
2022/05/04 05:26:31;;;;;;;10.55;5.50;;;;;;;16.91;57.87;99873.47;5079892;28;20052;-53
2022/05/04 05:29:16;;;;;;;10.65;7.03;;;;;;;16.83;56.52;99886.19;5080265;28;20055;-53
2022/05/04 05:32:00;;;;;;;12.65;6.90;;;;;;;16.99;55.04;99878.34;5080372;28;20081;-54
2022/05/04 05:34:45;;;;;;;9.35;6.75;;;;;;;17.20;53.18;99885.22;5080714;28;20071;-52
2022/05/04 05:37:29;;;;;;;9.55;6.00;;;;;;;16.87;53.67;99881.63;5080435;28;20056;-53
2022/05/04 05:40:13;;;;;;;10.65;6.78;;;;;;;16.37;55.09;99885.75;5082233;28;20138;-52
2022/05/04 05:42:58;;;;;;;9.77;5.95;;;;;;;16.44;55.63;99883.69;5081148;28;20051;-53
2022/05/04 05:45:42;;;;;;;11.95;6.88;;;;;;;16.12;56.16;99886.94;5082519;28;20048;-53
2022/05/04 05:48:27;;;;;;;14.52;6.50;;;;;;;16.79;56.86;99887.28;5082623;28;20067;-53
2022/05/04 05:51:12;;;;;;;13.35;6.90;;;;;;;17.09;54.66;99882.25;5083593;28;20052;-52
2022/05/04 05:53:57;;;;;;;9.68;6.40;;;;;;;17.40;54.00;99889.47;5082051;28;20142;-53
2022/05/04 05:56:41;;;;;;;9.68;6.63;;;;;;;17.47;53.10;99884.72;5083226;28;20052;-53
2022/05/04 05:59:26;;;;;;;10.15;6.68;;;;;;;17.56;52.99;99891.34;5082454;28;20056;-52
2022/05/04 06:02:10;;;;;;;8.95;6.30;;;;;;;17.91;52.96;99894.78;5081787;28;20056;-51
2022/05/04 06:04:56;;;;;;;12.80;6.20;;;;;;;17.07;53.71;99891.22;5081751;28;20047;-52
2022/05/04 06:07:40;;;;;;;11.88;6.82;;;;;;;17.37;53.46;99884.34;5081720;28;20052;-53
2022/05/04 06:10:24;;;;;;;14.32;6.65;;;;;;;17.32;53.85;99890.81;5081661;28;20043;-53
2022/05/04 06:13:09;;;;;;;12.35;6.57;;;;;;;17.49;52.89;99888.16;5082691;28;20474;-53
2022/05/04 06:15:53;;;;;;;10.15;5.93;;;;;;;18.07;53.12;99893.03;5083026;28;20052;-53
2022/05/04 06:18:38;;;;;;;10.45;7.50;;;;;;;17.32;52.76;99886.34;5081391;28;20043;-52
2022/05/04 06:21:22;;;;;;;11.27;7.70;;;;;;;17.37;54.14;99888.78;5083441;28;20060;-52
2022/05/04 06:24:07;;;;;;;11.05;6.95;;;;;;;17.47;53.67;99884.72;5083162;28;20127;-52
2022/05/04 06:26:52;;;;;;;11.50;7.57;;;;;;;17.34;52.45;99891.59;5084284;28;20448;-53
2022/05/04 06:35:52;;;;;;;11.85;6.10;;;;;;;17.45;54.55;99892.75;5083241;28;20044;-54
2022/05/04 06:38:37;;;;;;;11.05;6.10;;;;;;;17.71;53.23;99894.03;5087557;28;20401;-53
2022/05/04 06:41:21;;;;;;;10.98;5.97;;;;;;;17.73;54.28;99894.78;5086914;28;20405;-53
2022/05/04 06:44:07;;;;;;;9.48;6.10;;;;;;;18.02;52.75;99896.84;5085353;28;20525;-53
2022/05/04 06:46:52;;;;;;;18.77;7.90;;;;;;;17.73;52.69;99894.78;5087457;28;20048;-53
2022/05/04 06:49:37;;;;;;;10.45;6.07;;;;;;;18.91;52.10;99898.03;5077485;28;20044;-55
2022/05/04 06:52:24;;;;;;;13.25;6.40;;;;;;;19.50;47.70;99883.03;5083931;28;20444;-53
2022/05/04 06:55:09;;;;;;;11.95;5.82;;;;;;;19.19;47.17;99897.28;5082483;28;20083;-54
2022/05/04 06:57:54;;;;;;;9.80;6.35;;;;;;;19.03;48.17;99893.81;5082445;28;20059;-52
2022/05/04 07:00:38;;;;;;;9.57;6.20;;;;;;;19.50;47.70;99885.69;5083882;28;20047;-54
2022/05/04 07:03:23;;;;;;;13.82;5.65;;;;;;;20.60;46.66;99891.22;5080870;28;20055;-53
2022/05/04 07:06:08;;;;;;;10.73;5.68;;;;;;;20.66;44.51;99892.63;5071910;28;20351;-53
2022/05/04 07:08:52;;;;;;;9.02;6.15;;;;;;;19.92;45.11;99896.44;5084139;28;20766;-53
2022/05/04 07:11:37;;;;;;;9.50;5.95;;;;;;;19.61;45.86;99893.00;5082422;28;20859;-54
2022/05/04 07:14:21;;;;;;;12.10;5.72;;;;;;;19.17;46.80;99899.16;5082816;28;20047;-53
2022/05/04 07:17:06;;;;;;;10.20;5.32;;;;;;;19.44;44.58;99898.47;5084681;28;20579;-53
2022/05/04 07:19:50;;;;;;;12.32;6.10;;;;;;;19.06;46.52;99902.47;5083705;28;20051;-52
2022/05/04 07:22:35;;;;;;;8.10;5.22;;;;;;;18.81;46.42;99899.50;5084881;28;20051;-53
2022/05/04 07:25:19;;;;;;;11.23;5.68;;;;;;;18.94;46.07;99895.19;5086221;28;20802;-52
2022/05/04 07:28:05;;;;;;;13.77;5.82;;;;;;;19.28;46.26;99890.56;5086633;28;20048;-52
2022/05/04 07:30:50;;;;;;;7.68;5.00;;;;;;;19.73;46.00;99897.59;5085377;28;20812;-52
2022/05/04 07:33:34;;;;;;;9.15;4.50;;;;;;;20.09;44.49;99896.25;5084315;28;21884;-53
2022/05/04 07:36:19;;;;;;;11.98;4.78;;;;;;;20.42;43.95;99898.56;5085032;28;20043;-52
2022/05/04 07:39:04;;;;;;;6.93;4.93;;;;;;;20.40;44.34;99897.78;5086080;28;20035;-52
2022/05/04 07:45:00;;;;;;;5.53;4.20;;;;;;;21.58;41.08;99897.09;5086793;28;20048;-54
2022/05/04 07:47:44;;;;;;;;;;;;;;;21.08;40.23;99899.56;5084966;28;20043;-54
2022/05/04 07:50:29;;;;;;;11.15;4.18;;;;;;;22.06;40.15;99898.13;5085014;28;19931;-54
2022/05/04 07:53:13;;;;;;;8.00;3.70;;;;;;;22.48;39.53;99906.72;5084849;28;20055;-54
2022/05/04 07:55:58;;;;;;;6.82;3.67;;;;;;;22.50;38.31;99901.28;5084247;28;20044;-55
2022/05/04 07:58:43;;;;;;;5.53;3.63;;;;;;;22.97;37.37;99907.59;5086613;28;20047;-54
2022/05/04 08:04:31;;;;;;;4.97;3.30;;;;;;;23.37;37.10;99901.91;5085588;28;20044;-55
2022/05/04 08:07:19;;;;;;;6.30;2.72;;;;;;;23.68;36.56;99905.75;5084622;28;20055;-55
2022/05/04 08:10:04;;;;;;;4.57;3.35;;;;;;;23.30;35.27;99906.88;5086068;28;20056;-54
2022/05/04 08:12:49;;;;;;;5.47;3.40;;;;;;;22.46;35.15;99916.66;5084834;28;20059;-56
2022/05/04 08:15:33;;;;;;;4.40;2.85;;;;;;;22.99;36.93;99914.53;5083424;28;20054;-55
2022/05/04 08:18:18;;;;;;;6.63;2.85;;;;;;;23.45;35.83;99907.53;5084813;28;20375;-55
2022/05/04 08:21:02;;;;;;;4.10;2.80;;;;;;;23.23;35.69;99919.00;5083897;28;20044;-54
2022/05/04 08:23:47;;;;;;;7.47;3.45;;;;;;;23.30;36.75;99917.56;5085102;28;21380;-55
2022/05/04 08:26:31;;;;;;;5.10;3.30;;;;;;;23.53;34.87;99910.47;5084553;28;20047;-55
2022/05/04 08:29:16;;;;;;;4.25;3.20;;;;;;;23.08;35.10;99913.84;5085946;28;20052;-55
2022/05/04 08:32:01;;;;;;;4.43;3.50;;;;;;;23.12;35.17;99927.84;5084926;28;20060;-56
2022/05/04 08:34:45;;;;;;;8.25;3.95;;;;;;;23.01;35.95;99911.75;5084643;28;20432;-54
2022/05/04 08:37:29;;;;;;;6.43;2.92;;;;;;;23.54;35.97;99906.81;5084410;28;20048;-54
2022/05/04 08:40:14;;;;;;;6.22;3.00;;;;;;;23.57;36.04;99909.25;5084126;28;20048;-57
2022/05/04 08:43:05;;;;;;;4.78;3.55;;;;;;;22.87;36.39;99913.59;5083585;28;20047;-56
2022/05/04 08:45:52;;;;;;;7.57;3.20;;;;;;;22.56;36.49;99919.50;5084702;28;20056;-56
2022/05/04 08:48:38;;;;;;;5.22;3.40;;;;;;;22.97;36.05;99915.63;5084600;28;20055;-56
2022/05/04 08:51:22;;;;;;;5.32;4.55;;;;;;;22.85;36.25;99918.22;5083618;28;20067;-55
2022/05/04 08:54:08;;;;;;;4.60;3.17;;;;;;;22.92;37.34;99917.75;5083258;28;20052;-56
2022/05/04 08:56:53;;;;;;;4.50;2.78;;;;;;;23.41;36.33;99908.75;5084345;28;20389;-54
2022/05/04 08:59:38;;;;;;;3.83;3.17;;;;;;;23.48;34.93;99916.16;5084463;28;20554;-55
2022/05/04 09:02:23;;;;;;;4.50;3.50;;;;;;;22.83;35.87;99925.47;5085238;28;20048;-54
2022/05/04 09:05:19;;;;;;;6.13;3.60;;;;;;;22.83;36.16;99922.81;5085102;28;20577;-55
2022/05/04 09:08:04;;;;;;;3.95;2.97;;;;;;;22.96;37.24;99920.09;5083981;28;20366;-54
2022/05/04 09:10:48;;;;;;;5.60;3.55;;;;;;;22.98;36.00;99906.66;5083416;28;20052;-55
2022/05/04 09:13:46;;;;;;;7.75;3.72;;;;;;;22.92;36.91;99912.44;5083589;28;20055;-55
2022/05/04 09:16:32;;;;;;;6.15;3.20;;;;;;;22.87;35.76;99902.06;5111871;27;20044;-54
2022/05/04 09:19:18;;;;;;;6.85;3.28;;;;;;;23.31;35.73;99903.25;5085339;28;20463;-56
2022/05/04 09:22:16;;;;;;;6.72;3.15;;;;;;;23.36;36.39;99902.88;5085150;28;20079;-56
2022/05/04 09:25:00;;;;;;;4.28;2.80;;;;;;;23.84;34.74;99908.09;5084547;28;20051;-55
2022/05/04 09:27:46;;;;;;;4.05;2.85;;;;;;;24.33;33.74;99912.22;5084801;28;20040;-55
2022/05/04 09:30:30;;;;;;;4.40;2.70;;;;;;;24.77;33.65;99903.25;5083992;28;20486;-57
2022/05/04 09:33:20;;;;;;;5.10;2.83;;;;;;;25.01;32.21;99897.69;5083638;28;20052;-56
2022/05/04 09:36:05;;;;;;;4.75;3.33;;;;;;;24.43;33.58;99907.84;5082700;28;20052;-55
2022/05/04 09:45:23;;;;;;;5.15;3.90;;;;;;;23.84;34.48;99889.38;5082687;28;20078;-55
2022/05/04 09:48:11;;;;;;;3.63;2.80;;;;;;;23.66;34.71;99889.84;5082544;28;20052;-55
2022/05/04 09:51:08;;;;;;;7.07;3.40;;;;;;;23.15;33.82;99892.03;5084245;28;20047;-55
2022/05/04 09:53:53;;;;;;;7.07;2.80;;;;;;;23.53;33.44;99897.09;5082520;28;20058;-55
2022/05/04 09:56:38;;;;;;;4.00;2.92;;;;;;;23.51;33.83;99894.53;5082290;28;20051;-54
2022/05/04 09:59:25;;;;;;;7.00;2.58;;;;;;;23.39;35.24;99895.47;5082746;28;20060;-55
2022/05/04 10:02:10;;;;;;;7.20;3.88;;;;;;;22.26;35.39;99891.44;5082917;28;20047;-54
2022/05/04 10:04:55;;;;;;;4.63;2.95;;;;;;;22.97;35.05;99891.59;5082577;28;20036;-55
2022/05/04 10:07:43;;;;;;;8.13;3.25;;;;;;;22.49;35.61;99894.22;5082715;28;20052;-54
2022/05/04 10:10:29;;;;;;;3.67;2.85;;;;;;;22.73;35.00;99891.56;5083695;28;20079;-54
2022/05/04 10:13:17;;;;;;;3.85;2.30;;;;;;;23.00;34.32;99894.03;5087307;28;20051;-54
2022/05/04 10:16:05;;;;;;;6.95;3.00;;;;;;;22.90;34.82;99896.50;5085911;28;20044;-55
2022/05/04 10:18:51;;;;;;;6.05;2.85;;;;;;;22.72;35.21;99884.53;5087324;28;20048;-54
2022/05/04 10:21:38;;;;;;;6.25;3.03;;;;;;;22.59;35.08;99890.78;5086889;28;20055;-55
2022/05/04 10:24:25;;;;;;;4.93;2.80;;;;;;;22.54;35.55;99895.59;5086715;28;20071;-54
2022/05/04 10:27:21;;;;;;;4.45;2.78;;;;;;;22.64;34.75;99887.75;5086819;28;20109;-54
2022/05/04 10:33:11;;;;;;;4.15;3.30;;;;;;;21.76;35.49;99885.16;5085531;28;20044;-54
2022/05/04 10:35:55;;;;;;;6.78;2.53;;;;;;;21.67;36.73;99877.81;5085246;28;20135;-53
2022/05/04 10:38:43;;;;;;;3.58;2.95;;;;;;;21.77;36.39;99880.69;5084577;28;20044;-54
2022/05/04 10:41:37;;;;;;;3.50;2.58;;;;;;;21.40;37.63;99884.09;5085835;28;20051;-53
2022/05/04 10:44:53;;;;;;;4.32;2.88;;;;;;;21.67;37.35;99876.00;5086324;28;20060;-53
2022/05/04 10:47:40;;;;;;;4.45;3.00;;;;;;;21.27;36.23;99879.69;5086409;28;20045;-53
2022/05/04 10:50:25;;;;;;;4.72;2.95;;;;;;;21.71;37.20;99874.00;5087344;28;20056;-53
2022/05/04 10:53:19;;;;;;;4.18;2.88;;;;;;;21.68;37.09;99868.88;5086230;28;20106;-55
2022/05/04 10:56:24;;;;;;;10.43;3.63;;;;;;;21.18;37.33;99870.50;5086995;28;21163;-54
2022/05/04 10:59:10;;;;;;;4.20;2.65;;;;;;;21.76;36.94;99868.34;5085835;28;20058;-55
2022/05/04 11:01:57;;;;;;;4.72;2.92;;;;;;;22.49;35.97;99868.41;5086931;28;20048;-54
2022/05/04 11:04:42;;;;;;;7.15;2.72;;;;;;;22.50;35.45;99866.59;5086379;28;20150;-55
2022/05/04 11:07:35;;;;;;;5.28;3.00;;;;;;;22.67;35.44;99868.84;5085869;28;20151;-54
2022/05/04 11:10:21;;;;;;;6.38;2.95;;;;;;;22.52;35.03;99869.97;5086753;28;20052;-54
2022/05/04 11:13:06;;;;;;;6.55;2.97;;;;;;;22.26;34.97;99872.75;5086118;28;20044;-54
2022/05/04 11:15:55;;;;;;;5.57;2.95;;;;;;;22.57;35.30;99858.00;5085816;28;20048;-55
2022/05/04 11:18:39;;;;;;;3.80;3.30;;;;;;;23.68;35.95;99853.16;5083087;28;20051;-55
2022/05/04 11:21:26;;;;;;;4.32;2.90;;;;;;;23.83;33.31;99859.13;5083871;28;20048;-54
2022/05/04 11:24:13;;;;;;;5.88;2.63;;;;;;;23.57;35.81;99855.78;5083771;28;20060;-56
2022/05/04 11:26:58;;;;;;;6.22;2.90;;;;;;;23.49;33.66;99856.38;5083194;28;20124;-54
2022/05/04 11:29:44;;;;;;;4.43;2.50;;;;;;;23.36;33.37;99854.78;5083688;28;20064;-54
2022/05/04 11:32:32;;;;;;;3.83;2.75;;;;;;;23.13;33.63;99862.75;5083486;28;20059;-54
2022/05/04 11:35:17;;;;;;;4.78;2.47;;;;;;;23.14;33.55;99861.78;5081098;28;20669;-54
2022/05/04 11:38:02;;;;;;;5.50;3.17;;;;;;;22.49;34.01;99867.53;5080145;28;21555;-55
2022/05/04 11:40:48;;;;;;;4.70;2.88;;;;;;;22.82;33.90;99859.72;5082019;28;20149;-54
2022/05/04 11:43:34;;;;;;;5.45;3.13;;;;;;;22.87;33.49;99862.88;5081693;28;20665;-55
2022/05/04 11:46:21;;;;;;;5.78;2.40;;;;;;;23.12;34.20;99852.19;5109308;27;21107;-55
2022/05/04 11:49:09;;;;;;;5.45;2.78;;;;;;;23.17;33.74;99858.00;5081143;28;20052;-54
2022/05/04 11:51:55;;;;;;;7.30;3.58;;;;;;;22.01;33.62;99854.13;5082051;28;20052;-55
2022/05/04 11:54:43;;;;;;;6.65;3.00;;;;;;;22.22;34.96;99847.25;5080664;28;20052;-55
2022/05/04 11:57:28;;;;;;;3.08;2.15;;;;;;;22.22;34.38;99849.06;5082005;28;20573;-55
2022/05/04 12:00:16;;;;;;;4.85;2.10;;;;;;;22.98;33.70;99842.56;5082166;28;20048;-54
2022/05/04 12:03:03;;;;;;;5.75;3.50;;;;;;;23.41;34.08;99842.78;5082005;28;20537;-55
2022/05/04 12:05:48;;;;;;;5.60;2.92;;;;;;;23.64;32.80;99840.13;5082290;28;20044;-55
2022/05/04 12:08:33;;;;;;;5.53;2.60;;;;;;;23.79;32.11;99844.31;5085964;28;20043;-56
2022/05/04 12:11:17;;;;;;;3.75;2.47;;;;;;;23.98;32.69;99832.97;5082554;28;20052;-55
2022/05/04 12:14:02;;;;;;;5.25;2.75;;;;;;;23.74;32.43;99838.44;5081493;28;20055;-55
2022/05/04 12:16:47;;;;;;;4.22;2.60;;;;;;;23.89;32.21;99831.88;5083203;28;20056;-55
2022/05/04 12:19:34;;;;;;;5.32;2.22;;;;;;;24.22;32.95;99830.97;5081651;28;20041;-55
2022/05/04 12:22:19;;;;;;;7.57;3.25;;;;;;;24.34;32.92;99839.84;5082624;28;20040;-54
2022/05/04 12:25:04;;;;;;;4.82;2.08;;;;;;;24.39;32.28;99836.78;5082485;28;20043;-54
2022/05/04 12:27:54;;;;;;;4.15;2.42;;;;;;;24.30;33.17;99833.03;5082503;28;20056;-56
2022/05/04 12:33:50;;;;;;;4.03;2.40;;;;;;;24.56;32.90;99822.88;5083373;28;20878;-55
2022/05/04 12:36:35;;;;;;;4.43;2.60;;;;;;;24.38;32.72;99835.09;5083344;28;20036;-55
2022/05/04 12:39:23;;;;;;;4.95;2.55;;;;;;;24.21;31.92;99825.75;5085569;28;20059;-56
2022/05/04 12:42:07;;;;;;;8.68;3.03;;;;;;;24.13;32.11;99821.03;5084703;28;20055;-54
2022/05/04 12:44:53;;;;;;;6.97;3.13;;;;;;;24.01;31.48;99817.50;5082184;28;20473;-54
2022/05/04 12:47:37;;;;;;;3.70;2.13;;;;;;;24.08;32.00;99817.00;5082136;28;20052;-55
2022/05/04 12:50:24;;;;;;;3.72;2.35;;;;;;;24.14;32.40;99814.69;5083641;28;20056;-55
2022/05/04 12:53:09;;;;;;;4.53;2.38;;;;;;;24.23;32.18;99815.78;5081593;28;20035;-55
2022/05/04 12:59:01;;;;;;;6.15;3.88;;;;;;;24.25;31.70;99800.47;5080786;28;20109;-54
2022/05/04 13:01:46;;;;;;;4.15;2.70;;;;;;;24.14;32.28;99808.50;5084142;28;20500;-56
2022/05/04 13:04:31;;;;;;;7.80;2.97;;;;;;;23.84;32.05;99804.66;5083048;28;20138;-54
2022/05/04 13:07:15;;;;;;;7.47;2.58;;;;;;;24.07;32.13;99796.59;5084287;28;20051;-54
2022/05/04 13:09:59;;;;;;;4.03;2.58;;;;;;;24.20;31.75;99799.97;5084357;28;20043;-54
2022/05/04 13:12:44;;;;;;;4.38;2.30;;;;;;;23.45;31.98;99797.94;5083766;28;20048;-54
2022/05/04 13:15:28;;;;;;;8.88;6.82;;;;;;;22.82;33.11;99798.31;5081373;28;20036;-55
2022/05/04 13:18:14;;;;;;;3.10;2.80;;;;;;;22.62;34.09;99804.31;5081917;28;20056;-53
2022/05/04 13:20:58;;;;;;;8.25;2.47;;;;;;;22.93;33.32;99797.50;5082222;28;20559;-54
2022/05/04 13:23:44;;;;;;;4.80;2.80;;;;;;;22.52;32.67;99793.47;5081676;28;20047;-54
2022/05/04 13:26:29;;;;;;;3.72;2.20;;;;;;;22.86;33.62;99793.56;5079817;28;20044;-54
2022/05/04 13:29:14;;;;;;;4.22;2.50;;;;;;;22.52;33.66;99789.91;5081940;28;20047;-53
2022/05/04 13:32:03;;;;;;;4.38;3.22;;;;;;;21.87;33.66;99793.78;5079853;28;20132;-54
2022/05/04 13:34:47;;;;;;;3.42;2.40;;;;;;;22.93;33.18;99788.63;5080186;28;20052;-54